sensor_id;sensor_type;location;lat;lon;timestamp;P1;durP1;ratioP1;P2;durP2;ratioP2
5704;SDS011;2877;48.238;11.160;2023-03-20T00:00:42;4.30;;;3.90;;
5704;SDS011;2877;48.238;11.160;2023-03-20T00:03:11;5.07;;;4.57;;
5704;SDS011;2877;48.238;11.160;2023-03-20T00:05:37;6.07;;;4.57;;
5704;SDS011;2877;48.238;11.160;2023-03-20T00:08:03;4.50;;;4.00;;
5704;SDS011;2877;48.238;11.160;2023-03-20T00:10:31;5.70;;;4.80;;
5704;SDS011;2877;48.238;11.160;2023-03-20T00:13:05;4.47;;;3.87;;
5704;SDS011;2877;48.238;11.160;2023-03-20T00:15:36;4.27;;;3.87;;
5704;SDS011;2877;48.238;11.160;2023-03-20T00:18:03;5.00;;;4.23;;
5704;SDS011;2877;48.238;11.160;2023-03-20T00:20:36;4.40;;;4.00;;
5704;SDS011;2877;48.238;11.160;2023-03-20T00:23:01;5.30;;;4.60;;
5704;SDS011;2877;48.238;11.160;2023-03-20T00:25:28;5.03;;;4.57;;
5704;SDS011;2877;48.238;11.160;2023-03-20T00:27:53;5.30;;;4.80;;
5704;SDS011;2877;48.238;11.160;2023-03-20T00:30:21;5.23;;;4.40;;
5704;SDS011;2877;48.238;11.160;2023-03-20T00:32:53;5.47;;;4.97;;
5704;SDS011;2877;48.238;11.160;2023-03-20T00:37:51;4.10;;;3.47;;
5704;SDS011;2877;48.238;11.160;2023-03-20T00:40:17;4.63;;;4.23;;
5704;SDS011;2877;48.238;11.160;2023-03-20T00:42:44;5.23;;;4.73;;
5704;SDS011;2877;48.238;11.160;2023-03-20T00:45:15;5.03;;;4.53;;
5704;SDS011;2877;48.238;11.160;2023-03-20T00:47:43;5.00;;;4.50;;
5704;SDS011;2877;48.238;11.160;2023-03-20T00:50:20;7.30;;;4.33;;
5704;SDS011;2877;48.238;11.160;2023-03-20T00:52:47;5.07;;;4.57;;
5704;SDS011;2877;48.238;11.160;2023-03-20T00:55:13;5.10;;;4.60;;
5704;SDS011;2877;48.238;11.160;2023-03-20T00:57:41;5.93;;;4.73;;
5704;SDS011;2877;48.238;11.160;2023-03-20T01:03:10;5.83;;;5.10;;
5704;SDS011;2877;48.238;11.160;2023-03-20T01:05:39;4.90;;;4.30;;
5704;SDS011;2877;48.238;11.160;2023-03-20T01:08:09;6.40;;;4.80;;
5704;SDS011;2877;48.238;11.160;2023-03-20T01:10:37;5.23;;;4.10;;
5704;SDS011;2877;48.238;11.160;2023-03-20T01:13:02;5.20;;;3.80;;
5704;SDS011;2877;48.238;11.160;2023-03-20T01:15:31;6.07;;;4.33;;
5704;SDS011;2877;48.238;11.160;2023-03-20T01:17:57;4.50;;;4.13;;
5704;SDS011;2877;48.238;11.160;2023-03-20T01:20:24;4.47;;;4.10;;
5704;SDS011;2877;48.238;11.160;2023-03-20T01:22:52;4.30;;;3.70;;
5704;SDS011;2877;48.238;11.160;2023-03-20T01:25:18;5.53;;;4.00;;
5704;SDS011;2877;48.238;11.160;2023-03-20T01:27:46;4.80;;;4.40;;
5704;SDS011;2877;48.238;11.160;2023-03-20T01:30:18;6.00;;;4.37;;
5704;SDS011;2877;48.238;11.160;2023-03-20T01:32:44;4.50;;;4.10;;
5704;SDS011;2877;48.238;11.160;2023-03-20T01:35:12;4.63;;;3.77;;
5704;SDS011;2877;48.238;11.160;2023-03-20T01:37:39;4.70;;;3.90;;
5704;SDS011;2877;48.238;11.160;2023-03-20T01:40:42;3.70;;;3.40;;
5704;SDS011;2877;48.238;11.160;2023-03-20T01:43:12;4.90;;;4.00;;
5704;SDS011;2877;48.238;11.160;2023-03-20T01:45:42;3.53;;;3.23;;
5704;SDS011;2877;48.238;11.160;2023-03-20T01:48:18;3.50;;;3.20;;
5704;SDS011;2877;48.238;11.160;2023-03-20T01:50:44;8.30;;;3.80;;
5704;SDS011;2877;48.238;11.160;2023-03-20T01:53:17;5.77;;;3.67;;
5704;SDS011;2877;48.238;11.160;2023-03-20T01:55:53;3.53;;;3.23;;
5704;SDS011;2877;48.238;11.160;2023-03-20T01:58:25;3.40;;;3.20;;
5704;SDS011;2877;48.238;11.160;2023-03-20T02:00:56;3.07;;;2.87;;
5704;SDS011;2877;48.238;11.160;2023-03-20T02:03:22;3.03;;;2.83;;
5704;SDS011;2877;48.238;11.160;2023-03-20T02:05:48;6.30;;;3.20;;
5704;SDS011;2877;48.238;11.160;2023-03-20T02:10:51;3.50;;;3.20;;
5704;SDS011;2877;48.238;11.160;2023-03-20T02:13:17;5.10;;;3.07;;
5704;SDS011;2877;48.238;11.160;2023-03-20T02:16:17;2.80;;;2.60;;
5704;SDS011;2877;48.238;11.160;2023-03-20T02:18:40;2.77;;;2.57;;
5704;SDS011;2877;48.238;11.160;2023-03-20T02:32:00;3.33;;;2.67;;
5704;SDS011;2877;48.238;11.160;2023-03-20T02:34:43;2.53;;;2.33;;
5704;SDS011;2877;48.238;11.160;2023-03-20T02:52:03;1.90;;;1.80;;
5704;SDS011;2877;48.238;11.160;2023-03-20T03:03:10;4.37;;;1.90;;
5704;SDS011;2877;48.238;11.160;2023-03-20T03:08:16;2.33;;;1.90;;
5704;SDS011;2877;48.238;11.160;2023-03-20T03:10:51;1.73;;;1.63;;
5704;SDS011;2877;48.238;11.160;2023-03-20T03:13:22;1.80;;;1.70;;
5704;SDS011;2877;48.238;11.160;2023-03-20T03:15:53;1.73;;;1.63;;
5704;SDS011;2877;48.238;11.160;2023-03-20T03:18:23;2.00;;;1.43;;
5704;SDS011;2877;48.238;11.160;2023-03-20T03:20:51;1.83;;;1.73;;
5704;SDS011;2877;48.238;11.160;2023-03-20T03:23:24;1.77;;;1.67;;
5704;SDS011;2877;48.238;11.160;2023-03-20T03:25:58;1.50;;;1.40;;
5704;SDS011;2877;48.238;11.160;2023-03-20T03:28:34;2.50;;;2.07;;
5704;SDS011;2877;48.238;11.160;2023-03-20T03:31:15;2.60;;;1.50;;
5704;SDS011;2877;48.238;11.160;2023-03-20T03:33:47;1.47;;;1.37;;
5704;SDS011;2877;48.238;11.160;2023-03-20T03:36:26;1.83;;;1.73;;
5704;SDS011;2877;48.238;11.160;2023-03-20T03:39:11;1.77;;;1.53;;
5704;SDS011;2877;48.238;11.160;2023-03-20T03:47:30;1.80;;;1.70;;
5704;SDS011;2877;48.238;11.160;2023-03-20T03:50:08;1.73;;;1.63;;
5704;SDS011;2877;48.238;11.160;2023-03-20T03:52:44;3.83;;;2.30;;
5704;SDS011;2877;48.238;11.160;2023-03-20T03:55:20;5.93;;;2.50;;
5704;SDS011;2877;48.238;11.160;2023-03-20T03:57:54;1.90;;;1.80;;
5704;SDS011;2877;48.238;11.160;2023-03-20T04:00:22;2.60;;;2.50;;
5704;SDS011;2877;48.238;11.160;2023-03-20T04:02:52;2.10;;;2.00;;
5704;SDS011;2877;48.238;11.160;2023-03-20T04:05:19;2.63;;;2.43;;
5704;SDS011;2877;48.238;11.160;2023-03-20T04:07:47;2.73;;;2.53;;
5704;SDS011;2877;48.238;11.160;2023-03-20T04:10:18;2.40;;;2.30;;
5704;SDS011;2877;48.238;11.160;2023-03-20T04:12:44;4.20;;;2.37;;
5704;SDS011;2877;48.238;11.160;2023-03-20T04:15:11;2.60;;;2.40;;
5704;SDS011;2877;48.238;11.160;2023-03-20T04:17:38;2.50;;;2.30;;
5704;SDS011;2877;48.238;11.160;2023-03-20T04:20:04;2.40;;;2.30;;
5704;SDS011;2877;48.238;11.160;2023-03-20T04:22:31;2.80;;;2.60;;
5704;SDS011;2877;48.238;11.160;2023-03-20T04:24:59;4.20;;;2.90;;
5704;SDS011;2877;48.238;11.160;2023-03-20T04:27:25;3.13;;;2.93;;
5704;SDS011;2877;48.238;11.160;2023-03-20T04:29:51;3.00;;;2.80;;
5704;SDS011;2877;48.238;11.160;2023-03-20T04:32:16;2.70;;;2.50;;
5704;SDS011;2877;48.238;11.160;2023-03-20T04:34:42;2.63;;;2.43;;
5704;SDS011;2877;48.238;11.160;2023-03-20T04:37:07;3.43;;;2.97;;
5704;SDS011;2877;48.238;11.160;2023-03-20T04:39:33;3.10;;;2.80;;
5704;SDS011;2877;48.238;11.160;2023-03-20T04:42:00;3.53;;;3.23;;
5704;SDS011;2877;48.238;11.160;2023-03-20T04:44:26;3.20;;;3.00;;
5704;SDS011;2877;48.238;11.160;2023-03-20T04:46:52;3.17;;;2.93;;
5704;SDS011;2877;48.238;11.160;2023-03-20T04:49:17;4.00;;;3.60;;
5704;SDS011;2877;48.238;11.160;2023-03-20T04:51:43;4.23;;;3.83;;
5704;SDS011;2877;48.238;11.160;2023-03-20T04:54:09;4.93;;;3.80;;
5704;SDS011;2877;48.238;11.160;2023-03-20T04:56:34;3.83;;;3.13;;
5704;SDS011;2877;48.238;11.160;2023-03-20T04:59:00;5.37;;;3.80;;
5704;SDS011;2877;48.238;11.160;2023-03-20T05:01:25;4.30;;;3.90;;
5704;SDS011;2877;48.238;11.160;2023-03-20T05:03:51;4.20;;;3.77;;
5704;SDS011;2877;48.238;11.160;2023-03-20T05:06:17;4.30;;;3.90;;
5704;SDS011;2877;48.238;11.160;2023-03-20T05:08:42;5.17;;;4.67;;
5704;SDS011;2877;48.238;11.160;2023-03-20T05:11:08;4.70;;;4.30;;
5704;SDS011;2877;48.238;11.160;2023-03-20T05:13:34;5.70;;;4.60;;
5704;SDS011;2877;48.238;11.160;2023-03-20T05:15:59;4.43;;;4.00;;
5704;SDS011;2877;48.238;11.160;2023-03-20T05:18:25;4.73;;;4.20;;
5704;SDS011;2877;48.238;11.160;2023-03-20T05:20:50;4.70;;;4.00;;
5704;SDS011;2877;48.238;11.160;2023-03-20T05:23:16;4.90;;;4.47;;
5704;SDS011;2877;48.238;11.160;2023-03-20T05:25:41;4.90;;;3.97;;
5704;SDS011;2877;48.238;11.160;2023-03-20T05:28:08;5.07;;;4.27;;
5704;SDS011;2877;48.238;11.160;2023-03-20T05:30:33;10.20;;;6.70;;
5704;SDS011;2877;48.238;11.160;2023-03-20T05:32:59;4.27;;;3.87;;
5704;SDS011;2877;48.238;11.160;2023-03-20T05:35:24;5.80;;;4.60;;
5704;SDS011;2877;48.238;11.160;2023-03-20T05:37:50;6.67;;;4.67;;
5704;SDS011;2877;48.238;11.160;2023-03-20T05:40:15;4.77;;;4.27;;
5704;SDS011;2877;48.238;11.160;2023-03-20T05:42:43;9.50;;;4.80;;
5704;SDS011;2877;48.238;11.160;2023-03-20T05:45:09;6.40;;;4.97;;
5704;SDS011;2877;48.238;11.160;2023-03-20T05:47:35;5.50;;;4.87;;
5704;SDS011;2877;48.238;11.160;2023-03-20T05:50:01;6.93;;;5.03;;
5704;SDS011;2877;48.238;11.160;2023-03-20T05:52:27;6.07;;;4.90;;
5704;SDS011;2877;48.238;11.160;2023-03-20T05:54:53;7.20;;;5.57;;
5704;SDS011;2877;48.238;11.160;2023-03-20T05:57:18;5.43;;;4.80;;
5704;SDS011;2877;48.238;11.160;2023-03-20T05:59:44;5.73;;;5.13;;
5704;SDS011;2877;48.238;11.160;2023-03-20T06:02:10;5.93;;;5.20;;
5704;SDS011;2877;48.238;11.160;2023-03-20T06:04:36;6.17;;;5.57;;
5704;SDS011;2877;48.238;11.160;2023-03-20T06:07:02;7.73;;;6.43;;
5704;SDS011;2877;48.238;11.160;2023-03-20T06:09:28;10.90;;;6.40;;
5704;SDS011;2877;48.238;11.160;2023-03-20T06:11:54;7.07;;;6.23;;
5704;SDS011;2877;48.238;11.160;2023-03-20T06:14:20;7.57;;;6.23;;
5704;SDS011;2877;48.238;11.160;2023-03-20T06:16:45;8.13;;;6.33;;
5704;SDS011;2877;48.238;11.160;2023-03-20T06:19:11;10.70;;;6.27;;
5704;SDS011;2877;48.238;11.160;2023-03-20T06:21:36;7.10;;;6.40;;
5704;SDS011;2877;48.238;11.160;2023-03-20T06:24:02;8.07;;;6.73;;
5704;SDS011;2877;48.238;11.160;2023-03-20T06:26:28;9.20;;;6.43;;
5704;SDS011;2877;48.238;11.160;2023-03-20T06:28:53;10.40;;;6.90;;
5704;SDS011;2877;48.238;11.160;2023-03-20T06:31:19;7.30;;;6.00;;
5704;SDS011;2877;48.238;11.160;2023-03-20T06:33:44;7.10;;;5.90;;
5704;SDS011;2877;48.238;11.160;2023-03-20T06:36:10;9.20;;;7.17;;
5704;SDS011;2877;48.238;11.160;2023-03-20T06:38:36;7.73;;;6.97;;
5704;SDS011;2877;48.238;11.160;2023-03-20T06:41:01;14.20;;;8.07;;
5704;SDS011;2877;48.238;11.160;2023-03-20T06:43:27;8.40;;;7.10;;
5704;SDS011;2877;48.238;11.160;2023-03-20T06:45:53;8.20;;;7.30;;
5704;SDS011;2877;48.238;11.160;2023-03-20T06:48:18;7.87;;;6.43;;
5704;SDS011;2877;48.238;11.160;2023-03-20T06:50:50;9.97;;;7.30;;
5704;SDS011;2877;48.238;11.160;2023-03-20T06:53:16;7.30;;;6.47;;
5704;SDS011;2877;48.238;11.160;2023-03-20T06:55:42;7.33;;;6.53;;
5704;SDS011;2877;48.238;11.160;2023-03-20T06:58:11;8.50;;;6.23;;
5704;SDS011;2877;48.238;11.160;2023-03-20T07:00:37;14.20;;;6.07;;
5704;SDS011;2877;48.238;11.160;2023-03-20T07:03:03;6.33;;;5.43;;
5704;SDS011;2877;48.238;11.160;2023-03-20T07:05:28;6.83;;;5.57;;
5704;SDS011;2877;48.238;11.160;2023-03-20T07:07:54;7.50;;;5.93;;
5704;SDS011;2877;48.238;11.160;2023-03-20T07:10:19;6.80;;;6.00;;
5704;SDS011;2877;48.238;11.160;2023-03-20T07:12:45;5.13;;;4.63;;
5704;SDS011;2877;48.238;11.160;2023-03-20T07:15:11;6.80;;;6.07;;
5704;SDS011;2877;48.238;11.160;2023-03-20T07:17:36;5.67;;;5.10;;
5704;SDS011;2877;48.238;11.160;2023-03-20T07:20:03;6.83;;;5.63;;
5704;SDS011;2877;48.238;11.160;2023-03-20T07:22:29;5.53;;;5.03;;
5704;SDS011;2877;48.238;11.160;2023-03-20T07:24:55;5.10;;;4.57;;
5704;SDS011;2877;48.238;11.160;2023-03-20T07:27:22;5.37;;;4.87;;
5704;SDS011;2877;48.238;11.160;2023-03-20T07:29:48;6.47;;;5.70;;
5704;SDS011;2877;48.238;11.160;2023-03-20T07:32:14;4.80;;;4.37;;
5704;SDS011;2877;48.238;11.160;2023-03-20T07:34:40;7.03;;;4.90;;
5704;SDS011;2877;48.238;11.160;2023-03-20T07:37:06;4.90;;;4.43;;
5704;SDS011;2877;48.238;11.160;2023-03-20T07:39:32;4.83;;;4.43;;
5704;SDS011;2877;48.238;11.160;2023-03-20T07:41:57;4.63;;;4.23;;
5704;SDS011;2877;48.238;11.160;2023-03-20T07:44:23;5.27;;;4.77;;
5704;SDS011;2877;48.238;11.160;2023-03-20T07:46:48;5.47;;;4.93;;
5704;SDS011;2877;48.238;11.160;2023-03-20T07:49:15;5.53;;;5.00;;
5704;SDS011;2877;48.238;11.160;2023-03-20T07:51:44;6.27;;;4.47;;
5704;SDS011;2877;48.238;11.160;2023-03-20T07:54:11;5.07;;;4.57;;
5704;SDS011;2877;48.238;11.160;2023-03-20T07:56:37;6.30;;;5.70;;
5704;SDS011;2877;48.238;11.160;2023-03-20T07:59:02;5.07;;;4.57;;
5704;SDS011;2877;48.238;11.160;2023-03-20T08:01:28;7.63;;;4.90;;
5704;SDS011;2877;48.238;11.160;2023-03-20T08:03:54;5.10;;;4.60;;
5704;SDS011;2877;48.238;11.160;2023-03-20T08:06:20;4.97;;;4.47;;
5704;SDS011;2877;48.238;11.160;2023-03-20T08:08:45;4.37;;;3.97;;
5704;SDS011;2877;48.238;11.160;2023-03-20T08:11:11;4.83;;;4.33;;
5704;SDS011;2877;48.238;11.160;2023-03-20T08:13:36;4.80;;;4.37;;
5704;SDS011;2877;48.238;11.160;2023-03-20T08:16:02;4.53;;;4.13;;
5704;SDS011;2877;48.238;11.160;2023-03-20T08:18:28;4.90;;;4.27;;
5704;SDS011;2877;48.238;11.160;2023-03-20T08:20:54;4.87;;;4.40;;
5704;SDS011;2877;48.238;11.160;2023-03-20T08:23:19;4.40;;;4.00;;
5704;SDS011;2877;48.238;11.160;2023-03-20T08:25:46;5.77;;;4.20;;
5704;SDS011;2877;48.238;11.160;2023-03-20T08:28:16;3.80;;;3.50;;
5704;SDS011;2877;48.238;11.160;2023-03-20T08:30:41;4.73;;;4.23;;
5704;SDS011;2877;48.238;11.160;2023-03-20T08:33:08;4.37;;;4.03;;
5704;SDS011;2877;48.238;11.160;2023-03-20T08:35:34;4.43;;;4.03;;
5704;SDS011;2877;48.238;11.160;2023-03-20T08:38:00;3.57;;;3.27;;
5704;SDS011;2877;48.238;11.160;2023-03-20T08:40:25;3.50;;;3.20;;
5704;SDS011;2877;48.238;11.160;2023-03-20T08:42:51;4.00;;;3.70;;
5704;SDS011;2877;48.238;11.160;2023-03-20T08:45:17;2.50;;;2.40;;
5704;SDS011;2877;48.238;11.160;2023-03-20T08:47:42;3.03;;;2.73;;
5704;SDS011;2877;48.238;11.160;2023-03-20T08:50:13;3.13;;;2.40;;
5704;SDS011;2877;48.238;11.160;2023-03-20T08:52:39;4.60;;;3.40;;
5704;SDS011;2877;48.238;11.160;2023-03-20T08:55:08;3.00;;;2.80;;
5704;SDS011;2877;48.238;11.160;2023-03-20T08:57:37;5.00;;;4.50;;
5704;SDS011;2877;48.238;11.160;2023-03-20T09:00:04;9.13;;;4.30;;
5704;SDS011;2877;48.238;11.160;2023-03-20T09:02:31;2.40;;;2.20;;
5704;SDS011;2877;48.238;11.160;2023-03-20T09:04:57;3.10;;;2.70;;
5704;SDS011;2877;48.238;11.160;2023-03-20T09:07:22;2.83;;;2.23;;
5704;SDS011;2877;48.238;11.160;2023-03-20T09:09:48;2.30;;;2.20;;
5704;SDS011;2877;48.238;11.160;2023-03-20T09:12:14;2.23;;;2.07;;
5704;SDS011;2877;48.238;11.160;2023-03-20T09:14:39;1.83;;;1.73;;
5704;SDS011;2877;48.238;11.160;2023-03-20T09:17:05;2.37;;;1.60;;
5704;SDS011;2877;48.238;11.160;2023-03-20T09:19:31;2.60;;;2.23;;
5704;SDS011;2877;48.238;11.160;2023-03-20T09:21:57;2.00;;;1.90;;
5704;SDS011;2877;48.238;11.160;2023-03-20T09:24:22;1.63;;;1.53;;
5704;SDS011;2877;48.238;11.160;2023-03-20T09:26:48;1.50;;;1.40;;
5704;SDS011;2877;48.238;11.160;2023-03-20T09:29:14;6.87;;;1.70;;
5704;SDS011;2877;48.238;11.160;2023-03-20T09:31:39;1.90;;;1.80;;
5704;SDS011;2877;48.238;11.160;2023-03-20T09:34:05;1.67;;;1.57;;
5704;SDS011;2877;48.238;11.160;2023-03-20T09:36:31;2.43;;;1.47;;
5704;SDS011;2877;48.238;11.160;2023-03-20T09:38:57;2.00;;;1.90;;
5704;SDS011;2877;48.238;11.160;2023-03-20T09:41:24;1.83;;;1.73;;
5704;SDS011;2877;48.238;11.160;2023-03-20T09:44:04;3.03;;;1.50;;
5704;SDS011;2877;48.238;11.160;2023-03-20T09:49:42;1.53;;;1.43;;
5704;SDS011;2877;48.238;11.160;2023-03-20T09:55:15;1.30;;;1.30;;
5704;SDS011;2877;48.238;11.160;2023-03-20T09:57:46;1.53;;;1.43;;
5704;SDS011;2877;48.238;11.160;2023-03-20T10:00:17;1.63;;;1.43;;
5704;SDS011;2877;48.238;11.160;2023-03-20T10:02:51;1.97;;;1.73;;
5704;SDS011;2877;48.238;11.160;2023-03-20T10:05:26;1.40;;;1.40;;
5704;SDS011;2877;48.238;11.160;2023-03-20T10:08:08;2.00;;;1.87;;
5704;SDS011;2877;48.238;11.160;2023-03-20T10:13:18;1.30;;;1.30;;
5704;SDS011;2877;48.238;11.160;2023-03-20T10:15:48;1.57;;;1.30;;
5704;SDS011;2877;48.238;11.160;2023-03-20T10:18:23;1.67;;;1.57;;
5704;SDS011;2877;48.238;11.160;2023-03-20T10:23:42;1.20;;;1.20;;
5704;SDS011;2877;48.238;11.160;2023-03-20T10:26:23;1.37;;;1.37;;
5704;SDS011;2877;48.238;11.160;2023-03-20T10:28:52;1.50;;;1.40;;
5704;SDS011;2877;48.238;11.160;2023-03-20T10:32:34;1.80;;;1.70;;
5704;SDS011;2877;48.238;11.160;2023-03-20T10:37:26;1.40;;;1.30;;
5704;SDS011;2877;48.238;11.160;2023-03-20T10:42:48;0.87;;;0.87;;
5704;SDS011;2877;48.238;11.160;2023-03-20T10:47:42;1.90;;;1.80;;
5704;SDS011;2877;48.238;11.160;2023-03-20T10:50:18;1.30;;;1.20;;
5704;SDS011;2877;48.238;11.160;2023-03-20T10:52:48;1.20;;;1.20;;
5704;SDS011;2877;48.238;11.160;2023-03-20T10:55:19;1.97;;;1.87;;
5704;SDS011;2877;48.238;11.160;2023-03-20T10:57:56;1.67;;;1.57;;
5704;SDS011;2877;48.238;11.160;2023-03-20T11:00:27;1.77;;;1.60;;
5704;SDS011;2877;48.238;11.160;2023-03-20T11:02:52;1.20;;;1.20;;
5704;SDS011;2877;48.238;11.160;2023-03-20T11:08:02;1.23;;;1.23;;
5704;SDS011;2877;48.238;11.160;2023-03-20T11:10:39;1.23;;;1.23;;
5704;SDS011;2877;48.238;11.160;2023-03-20T11:13:15;1.30;;;1.20;;
5704;SDS011;2877;48.238;11.160;2023-03-20T11:15:52;1.40;;;1.30;;
5704;SDS011;2877;48.238;11.160;2023-03-20T11:18:19;1.77;;;1.67;;
5704;SDS011;2877;48.238;11.160;2023-03-20T11:20:49;1.70;;;1.60;;
5704;SDS011;2877;48.238;11.160;2023-03-20T11:23:23;1.60;;;1.50;;
5704;SDS011;2877;48.238;11.160;2023-03-20T11:25:55;1.30;;;1.30;;
5704;SDS011;2877;48.238;11.160;2023-03-20T11:30:56;1.03;;;1.03;;
5704;SDS011;2877;48.238;11.160;2023-03-20T11:33:25;1.33;;;1.23;;
5704;SDS011;2877;48.238;11.160;2023-03-20T11:35:53;1.00;;;1.00;;
5704;SDS011;2877;48.238;11.160;2023-03-20T11:38:20;1.00;;;1.00;;
5704;SDS011;2877;48.238;11.160;2023-03-20T11:40:46;0.83;;;0.83;;
5704;SDS011;2877;48.238;11.160;2023-03-20T11:43:14;0.90;;;0.90;;
5704;SDS011;2877;48.238;11.160;2023-03-20T11:45:44;0.60;;;0.60;;
5704;SDS011;2877;48.238;11.160;2023-03-20T11:48:19;1.60;;;0.80;;
5704;SDS011;2877;48.238;11.160;2023-03-20T11:50:55;0.97;;;0.93;;
5704;SDS011;2877;48.238;11.160;2023-03-20T11:53:31;1.53;;;0.90;;
5704;SDS011;2877;48.238;11.160;2023-03-20T11:58:38;1.10;;;1.00;;
5704;SDS011;2877;48.238;11.160;2023-03-20T12:01:26;0.87;;;0.87;;
5704;SDS011;2877;48.238;11.160;2023-03-20T12:06:24;0.90;;;0.90;;
5704;SDS011;2877;48.238;11.160;2023-03-20T12:08:52;1.00;;;1.00;;
5704;SDS011;2877;48.238;11.160;2023-03-20T12:14:05;0.90;;;0.90;;
5704;SDS011;2877;48.238;11.160;2023-03-20T12:16:39;0.90;;;0.90;;
5704;SDS011;2877;48.238;11.160;2023-03-20T12:19:14;0.80;;;0.80;;
5704;SDS011;2877;48.238;11.160;2023-03-20T12:24:39;1.47;;;0.90;;
5704;SDS011;2877;48.238;11.160;2023-03-20T12:27:28;1.03;;;1.03;;
5704;SDS011;2877;48.238;11.160;2023-03-20T12:35:45;0.90;;;0.90;;
5704;SDS011;2877;48.238;11.160;2023-03-20T12:38:35;1.20;;;1.00;;
5704;SDS011;2877;48.238;11.160;2023-03-20T12:41:23;1.00;;;1.00;;
5704;SDS011;2877;48.238;11.160;2023-03-20T12:46:43;1.27;;;1.17;;
5704;SDS011;2877;48.238;11.160;2023-03-20T12:49:34;0.80;;;0.80;;
5704;SDS011;2877;48.238;11.160;2023-03-20T12:52:35;1.37;;;1.27;;
5704;SDS011;2877;48.238;11.160;2023-03-20T12:55:10;0.80;;;0.80;;
5704;SDS011;2877;48.238;11.160;2023-03-20T13:00:23;1.90;;;1.80;;
5704;SDS011;2877;48.238;11.160;2023-03-20T13:08:36;1.30;;;1.20;;
5704;SDS011;2877;48.238;11.160;2023-03-20T13:13:52;1.10;;;1.10;;
5704;SDS011;2877;48.238;11.160;2023-03-20T13:21:38;1.20;;;1.20;;
5704;SDS011;2877;48.238;11.160;2023-03-20T13:24:32;0.90;;;0.90;;
5704;SDS011;2877;48.238;11.160;2023-03-20T13:29:51;1.00;;;1.00;;
5704;SDS011;2877;48.238;11.160;2023-03-20T13:35:35;0.80;;;0.80;;
5704;SDS011;2877;48.238;11.160;2023-03-20T13:38:34;0.90;;;0.90;;
5704;SDS011;2877;48.238;11.160;2023-03-20T13:41:06;0.83;;;0.83;;
5704;SDS011;2877;48.238;11.160;2023-03-20T13:43:38;1.20;;;1.20;;
5704;SDS011;2877;48.238;11.160;2023-03-20T13:46:11;1.90;;;0.90;;
5704;SDS011;2877;48.238;11.160;2023-03-20T13:48:43;0.90;;;0.90;;
5704;SDS011;2877;48.238;11.160;2023-03-20T13:59:45;0.67;;;0.67;;
5704;SDS011;2877;48.238;11.160;2023-03-20T14:02:23;0.97;;;0.80;;
5704;SDS011;2877;48.238;11.160;2023-03-20T14:05:00;0.87;;;0.87;;
5704;SDS011;2877;48.238;11.160;2023-03-20T14:07:40;0.70;;;0.70;;
5704;SDS011;2877;48.238;11.160;2023-03-20T14:12:52;0.70;;;0.70;;
5704;SDS011;2877;48.238;11.160;2023-03-20T14:15:21;0.70;;;0.70;;
5704;SDS011;2877;48.238;11.160;2023-03-20T14:17:51;0.70;;;0.60;;
5704;SDS011;2877;48.238;11.160;2023-03-20T14:22:51;0.60;;;0.60;;
5704;SDS011;2877;48.238;11.160;2023-03-20T14:25:17;0.60;;;0.60;;
5704;SDS011;2877;48.238;11.160;2023-03-20T14:33:36;0.80;;;0.80;;
5704;SDS011;2877;48.238;11.160;2023-03-20T14:38:28;0.70;;;0.70;;
5704;SDS011;2877;48.238;11.160;2023-03-20T14:43:39;0.80;;;0.70;;
5704;SDS011;2877;48.238;11.160;2023-03-20T14:49:17;1.13;;;0.73;;
5704;SDS011;2877;48.238;11.160;2023-03-20T14:52:00;1.27;;;1.17;;
5704;SDS011;2877;48.238;11.160;2023-03-20T14:54:39;1.10;;;1.10;;
5704;SDS011;2877;48.238;11.160;2023-03-20T14:57:09;0.80;;;0.80;;
5704;SDS011;2877;48.238;11.160;2023-03-20T14:59:42;1.23;;;1.13;;
5704;SDS011;2877;48.238;11.160;2023-03-20T15:02:20;0.90;;;0.90;;
5704;SDS011;2877;48.238;11.160;2023-03-20T15:04:59;0.90;;;0.90;;
5704;SDS011;2877;48.238;11.160;2023-03-20T15:07:27;0.77;;;0.77;;
5704;SDS011;2877;48.238;11.160;2023-03-20T15:09:55;1.00;;;1.00;;
5704;SDS011;2877;48.238;11.160;2023-03-20T15:12:24;0.90;;;0.90;;
5704;SDS011;2877;48.238;11.160;2023-03-20T15:14:59;0.90;;;0.90;;
5704;SDS011;2877;48.238;11.160;2023-03-20T15:17:36;1.17;;;1.07;;
5704;SDS011;2877;48.238;11.160;2023-03-20T15:25:22;1.00;;;0.90;;
5704;SDS011;2877;48.238;11.160;2023-03-20T15:27:51;0.90;;;0.90;;
5704;SDS011;2877;48.238;11.160;2023-03-20T15:30:19;1.03;;;1.03;;
5704;SDS011;2877;48.238;11.160;2023-03-20T15:32:51;0.87;;;0.87;;
5704;SDS011;2877;48.238;11.160;2023-03-20T15:35:19;1.43;;;1.17;;
5704;SDS011;2877;48.238;11.160;2023-03-20T15:37:50;0.90;;;0.90;;
5704;SDS011;2877;48.238;11.160;2023-03-20T15:40:22;1.20;;;1.10;;
5704;SDS011;2877;48.238;11.160;2023-03-20T15:45:32;1.10;;;1.00;;
5704;SDS011;2877;48.238;11.160;2023-03-20T15:48:06;1.00;;;1.00;;
5704;SDS011;2877;48.238;11.160;2023-03-20T15:50:34;1.87;;;0.70;;
5704;SDS011;2877;48.238;11.160;2023-03-20T15:53:02;1.80;;;1.70;;
5704;SDS011;2877;48.238;11.160;2023-03-20T15:55:29;1.50;;;1.40;;
5704;SDS011;2877;48.238;11.160;2023-03-20T15:57:56;1.10;;;1.10;;
5704;SDS011;2877;48.238;11.160;2023-03-20T16:02:58;1.83;;;1.73;;
5704;SDS011;2877;48.238;11.160;2023-03-20T16:05:28;1.10;;;1.10;;
5704;SDS011;2877;48.238;11.160;2023-03-20T16:07:55;1.10;;;1.10;;
5704;SDS011;2877;48.238;11.160;2023-03-20T16:10:27;1.20;;;1.20;;
5704;SDS011;2877;48.238;11.160;2023-03-20T16:13:00;1.53;;;1.43;;
5704;SDS011;2877;48.238;11.160;2023-03-20T16:15:27;1.30;;;1.20;;
5704;SDS011;2877;48.238;11.160;2023-03-20T16:17:59;1.30;;;1.00;;
5704;SDS011;2877;48.238;11.160;2023-03-20T16:20:28;1.33;;;1.23;;
5704;SDS011;2877;48.238;11.160;2023-03-20T16:23:02;3.33;;;1.20;;
5704;SDS011;2877;48.238;11.160;2023-03-20T16:25:29;4.73;;;1.40;;
5704;SDS011;2877;48.238;11.160;2023-03-20T16:27:55;1.10;;;1.10;;
5704;SDS011;2877;48.238;11.160;2023-03-20T16:30:23;1.13;;;1.13;;
5704;SDS011;2877;48.238;11.160;2023-03-20T16:32:58;1.10;;;1.10;;
5704;SDS011;2877;48.238;11.160;2023-03-20T16:35:39;1.10;;;1.10;;
5704;SDS011;2877;48.238;11.160;2023-03-20T16:38:16;1.57;;;1.23;;
5704;SDS011;2877;48.238;11.160;2023-03-20T16:40:54;1.37;;;1.20;;
5704;SDS011;2877;48.238;11.160;2023-03-20T16:43:37;1.10;;;1.10;;
5704;SDS011;2877;48.238;11.160;2023-03-20T16:46:03;1.50;;;1.50;;
5704;SDS011;2877;48.238;11.160;2023-03-20T16:51:08;2.30;;;2.00;;
5704;SDS011;2877;48.238;11.160;2023-03-20T16:53:44;2.37;;;1.97;;
5704;SDS011;2877;48.238;11.160;2023-03-20T16:56:36;6.57;;;5.10;;
5704;SDS011;2877;48.238;11.160;2023-03-20T16:59:07;3.10;;;2.80;;
5704;SDS011;2877;48.238;11.160;2023-03-20T17:01:34;5.20;;;4.00;;
5704;SDS011;2877;48.238;11.160;2023-03-20T17:04:16;2.77;;;1.20;;
5704;SDS011;2877;48.238;11.160;2023-03-20T17:06:45;1.20;;;1.20;;
5704;SDS011;2877;48.238;11.160;2023-03-20T17:09:24;1.53;;;1.43;;
5704;SDS011;2877;48.238;11.160;2023-03-20T17:11:59;1.97;;;1.87;;
5704;SDS011;2877;48.238;11.160;2023-03-20T17:14:28;1.80;;;1.70;;
5704;SDS011;2877;48.238;11.160;2023-03-20T17:16:54;1.53;;;1.50;;
5704;SDS011;2877;48.238;11.160;2023-03-20T17:19:22;1.97;;;1.23;;
5704;SDS011;2877;48.238;11.160;2023-03-20T17:21:48;1.00;;;1.00;;
5704;SDS011;2877;48.238;11.160;2023-03-20T17:24:14;0.97;;;0.97;;
5704;SDS011;2877;48.238;11.160;2023-03-20T17:26:43;1.10;;;1.07;;
5704;SDS011;2877;48.238;11.160;2023-03-20T17:29:13;2.40;;;1.10;;
5704;SDS011;2877;48.238;11.160;2023-03-20T17:31:39;1.37;;;1.17;;
5704;SDS011;2877;48.238;11.160;2023-03-20T17:34:04;1.27;;;1.20;;
5704;SDS011;2877;48.238;11.160;2023-03-20T17:36:31;2.10;;;1.07;;
5704;SDS011;2877;48.238;11.160;2023-03-20T17:38:58;1.10;;;1.10;;
5704;SDS011;2877;48.238;11.160;2023-03-20T17:41:24;1.10;;;1.10;;
5704;SDS011;2877;48.238;11.160;2023-03-20T17:43:51;1.53;;;1.30;;
5704;SDS011;2877;48.238;11.160;2023-03-20T17:46:21;1.00;;;1.00;;
5704;SDS011;2877;48.238;11.160;2023-03-20T17:48:49;3.30;;;1.20;;
5704;SDS011;2877;48.238;11.160;2023-03-20T17:51:16;1.40;;;1.30;;
5704;SDS011;2877;48.238;11.160;2023-03-20T17:53:42;3.90;;;2.00;;